createdAt,value
2018-04-07T00:01:33.280Z,2.77
2018-04-07T00:04:00.812Z,2.30
2018-04-07T00:06:28.361Z,2.30
2018-04-07T00:08:55.880Z,2.33
2018-04-07T00:11:23.425Z,2.33
2018-04-07T00:13:50.939Z,2.47
2018-04-07T00:16:18.481Z,2.53
2018-04-07T00:18:46.003Z,2.60
2018-04-07T00:21:13.542Z,2.20
2018-04-07T00:23:41.062Z,2.60
2018-04-07T00:26:08.597Z,2.50
2018-04-07T00:28:36.105Z,2.40
2018-04-07T00:31:03.641Z,2.50
2018-04-07T00:33:31.166Z,2.60
2018-04-07T00:35:58.729Z,2.90
2018-04-07T00:38:27.029Z,2.60
2018-04-07T00:40:54.575Z,2.40
2018-04-07T00:43:22.086Z,3.13
2018-04-07T00:45:50.309Z,3.00
2018-04-07T00:48:17.822Z,3.10
2018-04-07T00:50:45.369Z,3.40
2018-04-07T00:53:12.901Z,2.80
2018-04-07T00:55:40.433Z,3.17
2018-04-07T00:58:07.968Z,2.70
2018-04-07T01:00:35.493Z,3.50
2018-04-07T01:03:03.018Z,3.73
2018-04-07T01:05:30.544Z,3.37
2018-04-07T01:07:58.073Z,3.70
2018-04-07T01:10:25.608Z,3.57
2018-04-07T01:12:53.158Z,3.97
2018-04-07T01:15:20.677Z,3.57
2018-04-07T01:17:48.197Z,3.57
2018-04-07T01:20:16.600Z,4.33
2018-04-07T01:22:44.128Z,3.83
2018-04-07T01:25:11.665Z,4.00
2018-04-07T01:27:39.213Z,3.83
2018-04-07T01:30:06.737Z,3.40
2018-04-07T01:32:34.602Z,3.93
2018-04-07T01:35:02.113Z,4.13
2018-04-07T01:37:29.636Z,4.30
2018-04-07T01:39:57.145Z,4.40
2018-04-07T01:42:24.682Z,3.87
2018-04-07T01:44:52.190Z,3.80
2018-04-07T01:47:19.769Z,4.43
2018-04-07T01:49:47.285Z,4.37
2018-04-07T01:52:14.818Z,4.03
2018-04-07T01:54:43.117Z,4.53
2018-04-07T01:57:10.648Z,4.60
2018-04-07T01:59:38.178Z,4.63
2018-04-07T02:02:05.748Z,5.30
2018-04-07T02:04:33.277Z,4.47
2018-04-07T02:07:00.806Z,5.13
2018-04-07T02:09:28.341Z,4.57
2018-04-07T02:11:55.858Z,4.50
2018-04-07T02:14:23.396Z,5.00
2018-04-07T02:16:50.920Z,5.27
2018-04-07T02:19:18.467Z,4.30
2018-04-07T02:21:45.980Z,5.53
2018-04-07T02:24:13.509Z,5.13
2018-04-07T02:26:41.032Z,4.47
2018-04-07T02:29:08.606Z,4.80
2018-04-07T02:31:36.123Z,4.50
2018-04-07T02:34:03.659Z,5.40
2018-04-07T02:36:31.175Z,5.43
2018-04-07T02:38:58.709Z,5.83
2018-04-07T02:41:26.227Z,5.13
2018-04-07T02:43:53.767Z,5.00
2018-04-07T02:46:21.298Z,4.97
2018-04-07T02:48:49.068Z,5.60
2018-04-07T02:51:16.593Z,4.77
2018-04-07T02:53:44.130Z,5.17
2018-04-07T02:56:11.642Z,5.00
2018-04-07T02:58:39.177Z,5.90
2018-04-07T03:01:06.714Z,5.33
2018-04-07T03:03:35.022Z,5.80
2018-04-07T03:06:02.549Z,5.30
2018-04-07T03:08:30.857Z,5.97
2018-04-07T03:10:58.377Z,5.17
2018-04-07T03:13:26.679Z,5.00
2018-04-07T03:15:54.203Z,5.37
2018-04-07T03:18:22.517Z,5.93
2018-04-07T03:20:50.075Z,5.33
2018-04-07T03:23:17.593Z,5.30
2018-04-07T03:25:45.161Z,5.00
2018-04-07T03:28:12.674Z,6.03
2018-04-07T03:30:40.226Z,5.97
2018-04-07T03:33:07.773Z,5.83
2018-04-07T03:35:35.313Z,4.80
2018-04-07T03:38:02.858Z,6.10
2018-04-07T03:40:31.169Z,5.43
2018-04-07T03:42:58.695Z,6.53
2018-04-07T03:45:26.228Z,6.37
2018-04-07T03:47:53.749Z,6.30
2018-04-07T03:50:22.318Z,7.27
2018-04-07T03:52:49.837Z,6.33
2018-04-07T03:55:17.377Z,6.17
2018-04-07T03:57:44.902Z,6.80
2018-04-07T04:00:12.448Z,6.93
2018-04-07T04:02:40.005Z,7.17
2018-04-07T04:05:07.555Z,6.43
2018-04-07T04:07:35.072Z,6.70
2018-04-07T04:10:02.602Z,6.50
2018-04-07T04:12:30.224Z,6.67
2018-04-07T04:14:57.756Z,6.73
2018-04-07T04:17:26.045Z,7.10
2018-04-07T04:19:53.582Z,6.63
2018-04-07T04:22:21.871Z,7.10
2018-04-07T04:24:49.405Z,6.87
2018-04-07T04:27:16.925Z,7.40
2018-04-07T04:29:44.470Z,7.00
2018-04-07T04:32:12.001Z,7.13
2018-04-07T04:34:39.756Z,7.17
2018-04-07T04:37:07.302Z,7.23
2018-04-07T04:39:34.816Z,6.97
2018-04-07T04:42:02.345Z,6.70
2018-04-07T04:44:29.865Z,7.63
2018-04-07T04:46:57.408Z,7.13
2018-04-07T04:49:24.931Z,6.07
2018-04-07T04:51:52.500Z,7.03
2018-04-07T04:54:20.025Z,7.10
2018-04-07T04:56:47.553Z,6.87
2018-04-07T04:59:15.064Z,7.03
2018-04-07T05:01:42.613Z,7.33
2018-04-07T05:04:10.143Z,6.93
2018-04-07T05:06:37.688Z,6.63
2018-04-07T05:09:06.030Z,6.70
2018-04-07T05:11:33.567Z,7.03
2018-04-07T05:14:01.105Z,6.57
2018-04-07T05:16:28.654Z,7.43
2018-04-07T05:18:56.958Z,7.37
2018-04-07T05:21:24.523Z,7.77
2018-04-07T05:23:52.048Z,6.80
2018-04-07T05:26:20.357Z,6.90
2018-04-07T05:28:47.869Z,7.00
2018-04-07T05:31:16.166Z,7.70
2018-04-07T05:33:43.681Z,6.77
2018-04-07T05:36:12.013Z,7.27
2018-04-07T05:38:39.535Z,7.10
2018-04-07T05:41:07.851Z,7.30
2018-04-07T05:43:35.361Z,7.53
2018-04-07T05:46:03.808Z,7.67
2018-04-07T05:48:31.331Z,7.13
2018-04-07T05:50:58.934Z,6.93
2018-04-07T05:53:26.515Z,7.33
2018-04-07T05:55:54.041Z,7.20
2018-04-07T05:58:21.630Z,8.83
2018-04-07T06:00:49.145Z,7.83
2018-04-07T06:03:16.681Z,32.20
2018-04-07T06:05:44.240Z,15.47
2018-04-07T06:08:11.782Z,21.57
2018-04-07T06:10:40.061Z,9.20
2018-04-07T06:13:07.601Z,16.20
2018-04-07T06:15:35.911Z,9.27
2018-04-07T06:18:03.452Z,6.70
2018-04-07T06:20:30.982Z,8.67
2018-04-07T06:22:58.526Z,9.40
2018-04-07T06:25:26.066Z,9.13
2018-04-07T06:27:53.620Z,8.80
2018-04-07T06:30:21.142Z,12.17
2018-04-07T06:32:48.673Z,15.77
2018-04-07T06:35:16.960Z,8.87
2018-04-07T06:37:44.492Z,7.53
2018-04-07T06:40:12.073Z,7.50
2018-04-07T06:42:40.369Z,8.10
2018-04-07T06:45:07.890Z,7.30
2018-04-07T06:47:35.432Z,7.93
2018-04-07T06:50:03.018Z,7.00
2018-04-07T06:52:30.561Z,7.97
2018-04-07T06:54:58.077Z,7.93
2018-04-07T06:57:25.622Z,6.87
2018-04-07T06:59:53.161Z,8.23
2018-04-07T07:02:20.750Z,7.03
2018-04-07T07:04:48.317Z,6.63
2018-04-07T07:07:15.841Z,6.77
2018-04-07T07:09:43.391Z,6.40
2018-04-07T07:12:11.686Z,7.20
2018-04-07T07:14:39.258Z,5.93
2018-04-07T07:17:06.785Z,6.20
2018-04-07T07:19:35.106Z,6.30
2018-04-07T07:22:02.626Z,6.97
2018-04-07T07:24:30.171Z,10.83
2018-04-07T07:26:57.697Z,9.90
2018-04-07T07:29:25.260Z,36.90
2018-04-07T07:31:52.805Z,24.50
2018-04-07T07:34:20.345Z,21.53
2018-04-07T07:36:47.878Z,14.50
2018-04-07T07:39:15.412Z,6.37
2018-04-07T07:41:42.931Z,9.83
2018-04-07T07:44:10.472Z,9.60
2018-04-07T07:46:37.998Z,7.83
2018-04-07T07:49:05.542Z,5.50
2018-04-07T07:51:33.840Z,6.53
2018-04-07T07:54:01.389Z,10.53
2018-04-07T07:56:28.954Z,11.70
2018-04-07T07:58:56.505Z,7.10
2018-04-07T08:01:24.024Z,5.80
2018-04-07T08:03:51.561Z,5.77
2018-04-07T08:06:19.081Z,4.80
2018-04-07T08:08:46.642Z,5.53
2018-04-07T08:11:14.171Z,4.97
2018-04-07T08:13:41.697Z,5.47
2018-04-07T08:16:09.245Z,4.87
2018-04-07T08:18:36.771Z,6.37
2018-04-07T08:21:04.304Z,13.47
2018-04-07T08:23:31.824Z,4.93
2018-04-07T08:25:59.373Z,5.10
2018-04-07T08:28:27.885Z,5.03
2018-04-07T08:30:55.429Z,5.27
2018-04-07T08:33:22.960Z,4.47
2018-04-07T08:35:51.281Z,4.80
2018-04-07T08:38:18.802Z,4.97
2018-04-07T08:40:46.347Z,5.57
2018-04-07T08:43:13.880Z,5.50
2018-04-07T08:45:41.443Z,5.30
2018-04-07T08:48:08.966Z,4.97
2018-04-07T08:50:36.514Z,5.17
2018-04-07T08:53:04.079Z,5.90
2018-04-07T08:55:31.617Z,8.07
2018-04-07T08:57:59.133Z,5.17
2018-04-07T09:00:26.668Z,5.47
2018-04-07T09:02:54.186Z,5.10
2018-04-07T09:05:21.718Z,4.90
2018-04-07T09:07:49.249Z,5.83
2018-04-07T09:10:16.797Z,6.00
2018-04-07T09:12:45.082Z,5.20
2018-04-07T09:15:13.400Z,4.93
2018-04-07T09:17:40.930Z,5.93
2018-04-07T09:20:08.460Z,6.10
2018-04-07T09:22:35.980Z,5.60
2018-04-07T09:25:03.522Z,5.53
2018-04-07T09:27:31.052Z,4.90
2018-04-07T09:29:58.590Z,5.10
2018-04-07T09:32:26.883Z,5.50
2018-04-07T09:34:54.426Z,5.40
2018-04-07T09:37:22.085Z,5.20
2018-04-07T09:39:50.380Z,5.00
2018-04-07T09:42:17.917Z,5.37
2018-04-07T09:44:46.214Z,5.13
2018-04-07T09:47:13.751Z,5.27
2018-04-07T09:49:42.058Z,5.80
2018-04-07T09:52:09.613Z,4.83
2018-04-07T09:54:37.137Z,4.97
2018-04-07T09:57:04.695Z,4.83
2018-04-07T09:59:32.225Z,5.53
2018-04-07T10:01:59.775Z,4.77
2018-04-07T10:04:27.294Z,5.40
2018-04-07T10:06:54.830Z,4.90
2018-04-07T10:09:22.353Z,4.80
2018-04-07T10:11:49.917Z,5.40
2018-04-07T10:14:19.179Z,5.30
2018-04-07T10:16:48.373Z,5.10
2018-04-07T10:19:15.893Z,4.93
2018-04-07T10:21:44.209Z,4.83
2018-04-07T10:24:11.732Z,4.70
2018-04-07T10:26:40.041Z,5.07
2018-04-07T10:29:07.556Z,4.90
2018-04-07T10:31:35.118Z,4.70
2018-04-07T10:34:02.649Z,4.50
2018-04-07T10:36:30.195Z,5.10
2018-04-07T10:38:57.715Z,4.90
2018-04-07T10:41:25.263Z,4.63
2018-04-07T10:43:52.793Z,4.53
2018-04-07T10:46:20.329Z,5.13
2018-04-07T10:48:47.855Z,5.07
2018-04-07T10:51:15.384Z,4.37
2018-04-07T10:53:42.901Z,4.93
2018-04-07T10:56:10.430Z,4.50
2018-04-07T10:58:38.656Z,4.70
2018-04-07T11:01:06.230Z,5.07
2018-04-07T11:03:33.776Z,4.83
2018-04-07T11:06:02.102Z,4.70
2018-04-07T11:08:29.630Z,4.93
2018-04-07T11:10:57.950Z,4.13
2018-04-07T11:13:25.480Z,4.47
2018-04-07T11:15:53.026Z,4.47
2018-04-07T11:18:20.537Z,3.97
2018-04-07T11:20:48.059Z,4.17
2018-04-07T11:23:15.593Z,3.80
2018-04-07T11:25:43.923Z,4.40
2018-04-07T11:28:11.455Z,4.60
2018-04-07T11:30:38.978Z,4.77
2018-04-07T11:33:07.277Z,4.27
2018-04-07T11:35:34.793Z,3.77
2018-04-07T11:38:02.793Z,3.87
2018-04-07T11:40:31.076Z,4.30
2018-04-07T11:42:58.629Z,4.67
2018-04-07T11:45:26.161Z,4.60
2018-04-07T11:47:53.700Z,4.30
2018-04-07T11:50:21.248Z,4.60
2018-04-07T11:52:48.798Z,4.20
2018-04-07T11:55:16.322Z,3.87
2018-04-07T11:57:43.853Z,4.63
2018-04-07T12:00:12.217Z,4.03
2018-04-07T12:02:39.804Z,4.53
2018-04-07T12:05:07.297Z,3.87
2018-04-07T12:07:35.181Z,4.23
2018-04-07T12:10:02.701Z,4.03
2018-04-07T12:12:30.274Z,4.13
2018-04-07T12:14:57.797Z,4.33
2018-04-07T12:17:25.357Z,4.50
2018-04-07T12:19:52.881Z,4.30
2018-04-07T12:22:20.424Z,4.20
2018-04-07T12:24:47.955Z,4.63
2018-04-07T12:27:15.482Z,4.40
2018-04-07T12:29:42.994Z,3.97
2018-04-07T12:32:10.539Z,4.27
2018-04-07T12:34:38.062Z,4.17
2018-04-07T12:37:06.374Z,4.53
2018-04-07T12:39:33.903Z,4.40
2018-04-07T12:42:01.442Z,4.33
2018-04-07T12:44:28.964Z,4.00
2018-04-07T12:46:57.256Z,4.30
2018-04-07T12:49:24.774Z,4.43
2018-04-07T12:51:52.323Z,4.70
2018-04-07T12:54:19.845Z,4.37
2018-04-07T12:56:47.394Z,4.43
2018-04-07T12:59:14.913Z,4.40
2018-04-07T13:01:42.425Z,3.97
2018-04-07T13:04:10.723Z,4.27
2018-04-07T13:06:38.248Z,3.77
2018-04-07T13:09:06.569Z,4.50
2018-04-07T13:11:34.089Z,4.57
2018-04-07T13:14:02.397Z,3.90
2018-04-07T13:16:29.922Z,4.40
2018-04-07T13:18:58.245Z,4.50
2018-04-07T13:21:25.777Z,3.97
2018-04-07T13:23:53.309Z,4.30
2018-04-07T13:26:20.829Z,3.80
2018-04-07T13:28:48.377Z,4.27
2018-04-07T13:31:15.899Z,4.80
2018-04-07T13:33:43.439Z,4.20
2018-04-07T13:36:10.997Z,3.70
2018-04-07T13:38:38.538Z,4.20
2018-04-07T13:41:06.069Z,3.87
2018-04-07T13:43:33.609Z,3.80
2018-04-07T13:46:01.125Z,4.07
2018-04-07T13:48:28.667Z,4.23
2018-04-07T13:50:56.218Z,3.80
2018-04-07T13:53:23.776Z,4.30
2018-04-07T13:55:51.300Z,4.60
2018-04-07T13:58:18.844Z,3.63
2018-04-07T14:00:46.360Z,4.20
2018-04-07T14:03:13.894Z,3.70
2018-04-07T14:05:42.110Z,4.30
2018-04-07T14:08:10.405Z,4.27
2018-04-07T14:10:37.933Z,4.10
2018-04-07T14:13:06.250Z,4.17
2018-04-07T14:15:33.782Z,4.60
2018-04-07T14:18:01.311Z,4.37
2018-04-07T14:20:28.858Z,4.73
2018-04-07T14:22:56.390Z,3.63
2018-04-07T14:25:23.937Z,4.00
2018-04-07T14:27:51.469Z,4.10
2018-04-07T14:30:19.014Z,4.13
2018-04-07T14:32:47.296Z,4.13
2018-04-07T14:35:14.849Z,3.93
2018-04-07T14:37:43.137Z,4.20
2018-04-07T14:40:11.438Z,4.20
2018-04-07T14:42:38.961Z,4.33
2018-04-07T14:45:07.267Z,3.97
2018-04-07T14:47:34.799Z,4.73
2018-04-07T14:50:03.252Z,4.20
2018-04-07T14:52:30.769Z,4.50
2018-04-07T14:54:59.645Z,4.77
2018-04-07T14:57:27.170Z,4.13
2018-04-07T14:59:54.699Z,4.00
2018-04-07T15:02:22.222Z,4.07
2018-04-07T15:04:49.784Z,4.17
2018-04-07T15:07:17.325Z,4.10
2018-04-07T15:09:44.859Z,4.40
2018-04-07T15:12:13.154Z,4.27
2018-04-07T15:14:40.694Z,4.47
2018-04-07T15:17:08.243Z,3.70
2018-04-07T15:19:36.557Z,4.10
2018-04-07T15:22:04.073Z,3.83
2018-04-07T15:24:31.610Z,3.90
2018-04-07T15:26:59.184Z,3.80
2018-04-07T15:29:26.755Z,3.83
2018-04-07T15:31:54.319Z,3.77
2018-04-07T15:34:21.873Z,3.80
2018-04-07T15:36:49.410Z,4.00
2018-04-07T15:39:16.949Z,4.00
2018-04-07T15:41:44.474Z,3.63
2018-04-07T15:44:12.018Z,3.67
2018-04-07T15:46:40.325Z,3.80
2018-04-07T15:49:07.857Z,3.90
2018-04-07T15:51:35.401Z,3.80
2018-04-07T15:54:02.921Z,3.37
2018-04-07T15:56:30.506Z,4.10
2018-04-07T15:58:58.027Z,3.97
2018-04-07T16:01:25.609Z,3.67
2018-04-07T16:03:53.203Z,4.30
2018-04-07T16:06:21.506Z,3.97
2018-04-07T16:08:49.016Z,3.30
2018-04-07T16:11:16.553Z,3.70
2018-04-07T16:13:44.087Z,3.50
2018-04-07T16:16:11.630Z,3.60
2018-04-07T16:18:39.153Z,3.47
2018-04-07T16:21:06.685Z,3.47
2018-04-07T16:23:34.209Z,3.57
2018-04-07T16:26:01.748Z,3.30
2018-04-07T16:28:29.290Z,3.03
2018-04-07T16:30:57.610Z,3.33
2018-04-07T16:33:25.133Z,3.27
2018-04-07T16:35:53.442Z,3.23
2018-04-07T16:38:20.976Z,3.50
2018-04-07T16:40:48.534Z,3.50
2018-04-07T16:43:16.072Z,3.27
2018-04-07T16:45:43.605Z,3.80
2018-04-07T16:48:11.127Z,3.70
2018-04-07T16:50:38.652Z,4.03
2018-04-07T16:53:06.181Z,3.50
2018-04-07T16:55:33.709Z,3.53
2018-04-07T16:58:01.241Z,3.10
2018-04-07T17:00:28.771Z,3.60
2018-04-07T17:02:56.313Z,3.60
2018-04-07T17:05:23.839Z,3.30
2018-04-07T17:07:51.372Z,3.60
2018-04-07T17:10:18.902Z,3.60
2018-04-07T17:12:46.479Z,3.70
2018-04-07T17:15:14.024Z,3.50
2018-04-07T17:17:42.326Z,3.60
2018-04-07T17:20:09.846Z,3.50
2018-04-07T17:22:37.389Z,3.70
2018-04-07T17:25:04.923Z,3.77
2018-04-07T17:27:32.462Z,3.63
2018-04-07T17:29:59.998Z,4.20
2018-04-07T17:32:28.292Z,3.70
2018-04-07T17:34:55.815Z,3.73
2018-04-07T17:37:23.388Z,4.40
2018-04-07T17:39:50.926Z,3.73
2018-04-07T17:42:18.471Z,4.10
2018-04-07T17:44:46.013Z,4.13
2018-04-07T17:47:13.552Z,4.40
2018-04-07T17:49:43.734Z,3.80
2018-04-07T17:52:08.660Z,4.20
2018-04-07T17:54:36.173Z,4.30
2018-04-07T17:57:03.836Z,3.80
2018-04-07T17:59:31.517Z,4.07
2018-04-07T18:01:59.038Z,4.77
2018-04-07T18:04:26.565Z,4.00
2018-04-07T18:06:54.114Z,4.40
2018-04-07T18:09:21.693Z,5.37
2018-04-07T18:11:49.215Z,5.00
2018-04-07T18:14:16.761Z,4.73
2018-04-07T18:16:44.289Z,5.00
2018-04-07T18:19:11.829Z,4.40
2018-04-07T18:21:39.390Z,4.60
2018-04-07T18:24:06.952Z,4.73
2018-04-07T18:26:34.465Z,4.40
2018-04-07T18:29:02.007Z,4.87
2018-04-07T18:31:30.308Z,4.37
2018-04-07T18:33:57.851Z,4.80
2018-04-07T18:36:26.137Z,5.10
2018-04-07T18:38:53.708Z,5.27
2018-04-07T18:41:21.243Z,4.33
2018-04-07T18:43:48.779Z,4.53
2018-04-07T18:46:16.290Z,4.90
2018-04-07T18:48:43.828Z,4.63
2018-04-07T18:51:11.353Z,4.60
2018-04-07T18:53:38.881Z,4.50
2018-04-07T18:56:06.405Z,4.27
2018-04-07T18:58:33.957Z,4.70
2018-04-07T19:01:01.491Z,4.90
2018-04-07T19:03:29.033Z,4.83
2018-04-07T19:05:56.564Z,4.93
2018-04-07T19:08:24.105Z,5.47
2018-04-07T19:10:51.654Z,5.50
2018-04-07T19:13:19.186Z,5.70
2018-04-07T19:15:46.754Z,7.37
2018-04-07T19:18:14.290Z,8.40
2018-04-07T19:20:41.844Z,10.57
2018-04-07T19:23:09.368Z,9.20
2018-04-07T19:25:36.923Z,13.90
2018-04-07T19:28:04.845Z,7.93
2018-04-07T19:30:32.381Z,7.07
2018-04-07T19:32:59.908Z,8.80
2018-04-07T19:35:27.449Z,9.17
2018-04-07T19:37:54.978Z,9.60
2018-04-07T19:40:22.513Z,7.70
2018-04-07T19:42:50.042Z,8.70
2018-04-07T19:45:17.584Z,8.53
2018-04-07T19:47:45.114Z,8.60
2018-04-07T19:50:12.656Z,9.47
2018-04-07T19:52:41.063Z,10.03
2018-04-07T19:55:08.646Z,10.00
2018-04-07T19:57:36.166Z,9.77
2018-04-07T20:00:03.699Z,9.37
2018-04-07T20:02:31.217Z,10.77
2018-04-07T20:04:58.764Z,10.00
2018-04-07T20:07:26.285Z,10.60
2018-04-07T20:09:54.636Z,11.23
2018-04-07T20:12:22.161Z,14.80
2018-04-07T20:14:50.660Z,11.10
2018-04-07T20:17:18.180Z,13.70
2018-04-07T20:19:45.789Z,13.63
2018-04-07T20:22:14.106Z,20.43
2018-04-07T20:24:41.633Z,31.20
2018-04-07T20:27:09.187Z,33.57
2018-04-07T20:29:36.708Z,23.97
2018-04-07T20:32:04.277Z,20.60
2018-04-07T20:34:31.824Z,15.20
2018-04-07T20:36:59.379Z,14.13
2018-04-07T20:39:26.929Z,13.60
2018-04-07T20:41:54.476Z,21.17
2018-04-07T20:44:33.885Z,27.97
2018-04-07T20:47:02.208Z,22.03
2018-04-07T20:49:29.749Z,20.13
2018-04-07T20:51:57.304Z,30.00
2018-04-07T20:54:24.913Z,45.90
2018-04-07T20:56:52.448Z,53.93
2018-04-07T20:59:19.980Z,58.43
2018-04-07T21:01:47.555Z,65.03
2018-04-07T21:04:15.110Z,56.93
2018-04-07T21:06:42.669Z,49.83
2018-04-07T21:09:10.197Z,29.23
2018-04-07T21:11:37.737Z,34.53
2018-04-07T21:14:05.258Z,30.03
2018-04-07T21:16:32.801Z,22.70
2018-04-07T21:19:01.140Z,24.77
2018-04-07T21:21:28.657Z,25.10
2018-04-07T21:23:56.186Z,19.27
2018-04-07T21:26:23.725Z,14.20
2018-04-07T21:28:51.243Z,13.53
2018-04-07T21:31:18.776Z,11.83
2018-04-07T21:33:46.316Z,9.93
2018-04-07T21:36:13.944Z,8.53
2018-04-07T21:38:41.521Z,8.37
2018-04-07T21:41:09.033Z,7.93
2018-04-07T21:43:36.574Z,8.23
2018-04-07T21:46:04.110Z,7.83
2018-04-07T21:48:31.689Z,7.63
2018-04-07T21:50:59.205Z,8.57
2018-04-07T21:53:27.617Z,8.10
2018-04-07T21:55:55.133Z,7.10
2018-04-07T21:58:23.435Z,9.53
2018-04-07T22:00:50.953Z,8.80
2018-04-07T22:03:19.257Z,9.20
2018-04-07T22:05:46.783Z,9.93
2018-04-07T22:08:14.329Z,8.97
2018-04-07T22:10:41.866Z,7.73
2018-04-07T22:13:09.412Z,7.80
2018-04-07T22:15:36.946Z,7.77
2018-04-07T22:18:04.729Z,7.30
2018-04-07T22:20:32.252Z,8.30
2018-04-07T22:22:59.789Z,7.27
2018-04-07T22:25:27.306Z,6.87
2018-04-07T22:27:54.849Z,7.53
2018-04-07T22:30:22.408Z,7.40
2018-04-07T22:32:49.959Z,6.90
2018-04-07T22:35:17.490Z,7.27
2018-04-07T22:37:45.026Z,6.77
2018-04-07T22:40:12.537Z,6.50
2018-04-07T22:42:40.077Z,7.27
2018-04-07T22:45:07.592Z,7.13
2018-04-07T22:47:35.125Z,6.27
2018-04-07T22:50:02.650Z,6.90
2018-04-07T22:52:30.178Z,7.07
2018-04-07T22:54:57.730Z,7.00
2018-04-07T22:57:25.258Z,7.73
2018-04-07T22:59:52.799Z,6.23
2018-04-07T23:02:20.334Z,6.60
2018-04-07T23:04:48.643Z,6.80
2018-04-07T23:07:16.170Z,6.93
2018-04-07T23:09:44.470Z,6.13
2018-04-07T23:12:11.989Z,6.53
2018-04-07T23:14:40.288Z,6.00
2018-04-07T23:17:07.817Z,6.40
2018-04-07T23:19:36.137Z,5.80
2018-04-07T23:22:03.649Z,5.77
2018-04-07T23:24:32.014Z,6.17
2018-04-07T23:26:59.534Z,6.40
2018-04-07T23:29:27.069Z,6.30
2018-04-07T23:31:54.593Z,6.60
2018-04-07T23:34:22.146Z,6.43
2018-04-07T23:36:49.673Z,6.33
2018-04-07T23:39:17.205Z,6.07
2018-04-07T23:41:44.726Z,5.77
2018-04-07T23:44:12.265Z,5.90
2018-04-07T23:46:39.838Z,6.40
2018-04-07T23:49:07.380Z,6.43
2018-04-07T23:51:34.930Z,8.13
2018-04-07T23:54:02.474Z,7.97
2018-04-07T23:56:29.985Z,7.37
2018-04-07T23:58:58.282Z,7.63
